createdAt,value
2023-01-13T00:00:36.954Z,8.4
2023-01-13T00:01:37.864Z,8.5
2023-01-13T00:02:39.009Z,8.5
2023-01-13T00:03:39.845Z,8.5
2023-01-13T00:04:41.093Z,8.5
2023-01-13T00:05:42.857Z,8.5
2023-01-13T00:06:43.823Z,8.5
2023-01-13T00:07:44.877Z,8.6
2023-01-13T00:08:45.889Z,8.6
2023-01-13T00:09:47.300Z,8.7
2023-01-13T00:10:48.855Z,8.6
2023-01-13T00:11:49.859Z,8.6
2023-01-13T00:12:50.893Z,8.5
2023-01-13T00:13:51.877Z,8.5
2023-01-13T00:14:52.885Z,8.6
2023-01-13T00:15:53.920Z,8.6
2023-01-13T00:16:54.922Z,8.6
2023-01-13T00:17:55.931Z,8.6
2023-01-13T00:18:57.878Z,8.7
2023-01-13T00:19:58.962Z,8.7
2023-01-13T00:21:00.882Z,8.7
2023-01-13T00:22:02.943Z,8.8
2023-01-13T00:23:03.881Z,8.8
2023-01-13T00:24:04.877Z,8.8
2023-01-13T00:25:05.916Z,8.9
2023-01-13T00:26:06.861Z,8.9
2023-01-13T00:27:07.879Z,9
2023-01-13T00:28:08.858Z,8.9
2023-01-13T00:29:09.988Z,8.9
2023-01-13T00:30:11.877Z,8.9
2023-01-13T00:31:13.922Z,8.9
2023-01-13T00:32:15.862Z,8.8
2023-01-13T00:33:16.864Z,8.7
2023-01-13T00:34:17.859Z,8.7
2023-01-13T00:35:18.902Z,8.8
2023-01-13T00:36:19.880Z,8.8
2023-01-13T00:37:20.881Z,8.8
2023-01-13T00:38:21.844Z,8.9
2023-01-13T00:39:23.897Z,8.9
2023-01-13T00:40:24.899Z,8.9
2023-01-13T00:41:25.886Z,9
2023-01-13T00:42:26.818Z,9
2023-01-13T00:43:27.877Z,9
2023-01-13T00:44:29.517Z,9
2023-01-13T00:45:30.976Z,9
2023-01-13T00:46:32.950Z,9
2023-01-13T00:47:33.942Z,9
2023-01-13T00:48:34.897Z,9
2023-01-13T00:49:36.783Z,8.9
2023-01-13T00:50:37.970Z,8.9
2023-01-13T00:51:38.861Z,8.9
2023-01-13T00:52:41.979Z,8.9
2023-01-13T00:53:40.877Z,8.9
2023-01-13T00:54:41.879Z,8.9
2023-01-13T00:55:42.894Z,8.9
2023-01-13T00:56:43.877Z,8.9
2023-01-13T00:57:44.897Z,9
2023-01-13T00:58:45.873Z,9
2023-01-13T00:59:49.426Z,9
2023-01-13T01:00:48.943Z,9
2023-01-13T01:01:50.061Z,8.9
2023-01-13T01:02:50.941Z,8.9
2023-01-13T01:03:51.878Z,8.8
2023-01-13T01:04:52.859Z,8.7
2023-01-13T01:05:53.881Z,8.7
2023-01-13T01:06:54.897Z,8.7
2023-01-13T01:07:55.837Z,8.6
2023-01-13T01:08:56.935Z,8.6
2023-01-13T01:09:57.897Z,8.6
2023-01-13T01:10:59.920Z,8.5
2023-01-13T01:12:01.954Z,8.4
2023-01-13T01:13:02.946Z,8.5
2023-01-13T01:14:03.874Z,8.5
2023-01-13T01:15:04.923Z,8.4
2023-01-13T01:16:07.018Z,8.4
2023-01-13T01:17:08.856Z,8.4
2023-01-13T01:18:09.887Z,8.4
2023-01-13T01:19:10.886Z,8.5
2023-01-13T01:20:12.862Z,8.5
2023-01-13T01:21:13.968Z,8.5
2023-01-13T01:22:14.880Z,8.5
2023-01-13T01:23:15.877Z,8.4
2023-01-13T01:24:16.918Z,8.4
2023-01-13T01:25:17.886Z,8.4
2023-01-13T01:26:18.879Z,8.4
2023-01-13T01:27:19.899Z,8.4
2023-01-13T01:28:20.924Z,8.4
2023-01-13T01:29:21.920Z,8.5
2023-01-13T01:30:23.080Z,8.6
2023-01-13T01:31:23.936Z,8.4
2023-01-13T01:32:24.877Z,8.4
2023-01-13T01:33:25.942Z,8.4
2023-01-13T01:34:28.077Z,8.5
2023-01-13T01:35:29.897Z,8.4
2023-01-13T01:36:30.916Z,8.3
2023-01-13T01:37:31.898Z,8.3
2023-01-13T01:38:32.897Z,8.3
2023-01-13T01:39:33.898Z,8.4
2023-01-13T01:40:34.917Z,8.2
2023-01-13T01:41:35.945Z,8.2
2023-01-13T01:42:36.900Z,8.2
2023-01-13T01:43:37.919Z,8.2
2023-01-13T01:44:38.901Z,8.2
2023-01-13T01:45:39.939Z,8.2
2023-01-13T01:46:41.029Z,8.3
2023-01-13T01:47:41.935Z,8.3
2023-01-13T01:48:43.896Z,8.3
2023-01-13T01:49:44.919Z,8.2
2023-01-13T01:50:45.895Z,8.1
2023-01-13T01:51:47.459Z,8.1
2023-01-13T01:52:48.946Z,8.2
2023-01-13T01:53:49.899Z,8.1
2023-01-13T01:54:50.917Z,8.1
2023-01-13T01:55:51.920Z,8
2023-01-13T01:56:52.991Z,8.1
2023-01-13T01:57:53.928Z,8.1
2023-01-13T01:58:54.908Z,8.1
2023-01-13T01:59:55.917Z,8
2023-01-13T02:00:56.956Z,8
2023-01-13T02:01:59.053Z,8.1
2023-01-13T02:03:00.950Z,8.1
2023-01-13T02:07:38.142Z,8.3
2023-01-13T02:08:40.183Z,8.2
2023-01-13T02:09:41.880Z,8.3
2023-01-13T02:10:42.941Z,8.2
2023-01-13T02:11:44.925Z,8.2
2023-01-13T02:12:45.952Z,8.2
2023-01-13T02:13:47.410Z,8.2
2023-01-13T02:14:48.939Z,8.1
2023-01-13T02:15:49.908Z,8.1
2023-01-13T02:16:50.937Z,8.1
2023-01-13T02:17:51.951Z,8
2023-01-13T02:18:52.926Z,8
2023-01-13T02:19:53.906Z,8
2023-01-13T02:20:54.926Z,8.1
2023-01-13T02:21:55.934Z,8.1
2023-01-13T02:22:56.946Z,8.2
2023-01-13T02:23:57.965Z,8.2
2023-01-13T02:24:59.947Z,8.3
2023-01-13T02:26:01.977Z,8.3
2023-01-13T02:27:03.004Z,8.3
2023-01-13T02:28:04.007Z,8.3
2023-01-13T02:29:04.934Z,8.2
2023-01-13T02:30:05.991Z,8.2
2023-01-13T02:31:06.918Z,8.2
2023-01-13T02:32:07.926Z,8.3
2023-01-13T02:33:08.946Z,8.3
2023-01-13T02:34:09.944Z,8.3
2023-01-13T02:35:10.883Z,8.4
2023-01-13T02:36:11.930Z,8.4
2023-01-13T02:37:12.908Z,8.4
2023-01-13T02:38:13.954Z,8.4
2023-01-13T02:39:14.921Z,8.3
2023-01-13T02:40:15.925Z,8.3
2023-01-13T02:41:17.014Z,8.4
2023-01-13T02:42:18.926Z,8.4
2023-01-13T02:43:20.968Z,8.5
2023-01-13T02:44:21.929Z,8.5
2023-01-13T02:45:23.043Z,8.5
2023-01-13T02:46:23.987Z,8.5
2023-01-13T02:47:24.933Z,8.5
2023-01-13T02:48:25.927Z,8.4
2023-01-13T02:49:26.970Z,8.5
2023-01-13T02:50:27.923Z,8.5
2023-01-13T02:51:28.968Z,8.5
2023-01-13T02:52:29.953Z,8.5
2023-01-13T02:53:31.979Z,8.5
2023-01-13T02:54:33.954Z,8.5
2023-01-13T02:55:35.973Z,8.5
2023-01-13T02:56:36.915Z,8.4
2023-01-13T02:57:37.926Z,8.4
2023-01-13T02:58:38.945Z,8.5
2023-01-13T02:59:39.927Z,8.5
2023-01-13T03:00:40.929Z,8.5
2023-01-13T03:01:41.962Z,8.5
2023-01-13T03:02:42.961Z,8.5
2023-01-13T03:03:43.967Z,8.5
2023-01-13T03:04:44.920Z,8.4
2023-01-13T03:05:45.879Z,8.4
2023-01-13T03:06:47.460Z,8.5
2023-01-13T03:07:48.975Z,8.5
2023-01-13T03:08:49.992Z,8.6
2023-01-13T03:09:50.959Z,8.6
2023-01-13T03:10:51.903Z,8.7
2023-01-13T03:11:52.927Z,8.7
2023-01-13T03:12:53.929Z,8.7
2023-01-13T03:13:54.974Z,8.7
2023-01-13T03:14:55.975Z,8.7
2023-01-13T03:15:56.926Z,8.8
2023-01-13T03:16:57.900Z,8.8
2023-01-13T03:17:58.870Z,8.7
2023-01-13T03:18:59.882Z,8.6
2023-01-13T03:20:00.939Z,8.5
2023-01-13T03:21:01.920Z,8.5
2023-01-13T03:22:02.948Z,8.5
2023-01-13T03:23:03.873Z,8.5
2023-01-13T03:24:04.951Z,8.5
2023-01-13T03:25:05.923Z,8.5
2023-01-13T03:26:06.937Z,8.6
2023-01-13T03:27:07.952Z,8.6
2023-01-13T03:28:08.940Z,8.6
2023-01-13T03:29:09.941Z,8.7
2023-01-13T03:30:10.938Z,8.7
2023-01-13T03:31:11.918Z,8.7
2023-01-13T03:32:13.028Z,8.7
2023-01-13T03:33:14.000Z,8.8
2023-01-13T03:34:14.947Z,8.8
2023-01-13T03:35:15.911Z,8.8
2023-01-13T03:36:16.932Z,8.8
2023-01-13T03:37:17.967Z,8.8
2023-01-13T03:38:19.034Z,8.8
2023-01-13T03:39:20.006Z,8.8
2023-01-13T03:40:20.948Z,8.7
2023-01-13T03:41:21.943Z,8.8
2023-01-13T03:42:22.910Z,8.9
2023-01-13T03:43:23.938Z,8.8
2023-01-13T03:44:24.960Z,8.9
2023-01-13T03:45:25.986Z,8.9
2023-01-13T03:46:26.917Z,8.9
2023-01-13T03:47:27.927Z,8.9
2023-01-13T03:48:28.942Z,8.9
2023-01-13T03:49:29.909Z,9.1
2023-01-13T03:50:30.916Z,9
2023-01-13T03:51:32.603Z,9.1
2023-01-13T03:52:33.980Z,9.1
2023-01-13T03:53:34.980Z,9.2
2023-01-13T03:54:35.988Z,9.2
2023-01-13T03:55:36.957Z,9.3
2023-01-13T03:56:37.968Z,9.1
2023-01-13T03:57:39.037Z,9.1
2023-01-13T03:58:39.940Z,9.1
2023-01-13T03:59:40.969Z,9.2
2023-01-13T04:00:42.019Z,9.3
2023-01-13T04:01:43.072Z,9.2
2023-01-13T04:02:43.917Z,9.2
2023-01-13T04:03:44.968Z,9.2
2023-01-13T04:04:45.925Z,9.2
2023-01-13T04:05:47.541Z,9.2
2023-01-13T04:06:48.980Z,9.2
2023-01-13T04:07:49.981Z,9.2
2023-01-13T04:08:50.906Z,9.2
2023-01-13T04:09:51.998Z,9.2
2023-01-13T04:10:52.984Z,9.2
2023-01-13T04:11:54.199Z,9.2
2023-01-13T04:12:54.929Z,9.2
2023-01-13T04:13:55.997Z,9.1
2023-01-13T04:14:56.922Z,9.1
2023-01-13T04:15:57.970Z,9.1
2023-01-13T04:16:59.000Z,9.1
2023-01-13T04:17:59.924Z,9.1
2023-01-13T04:19:00.943Z,9
2023-01-13T04:20:01.960Z,9
2023-01-13T04:21:02.968Z,8.9
2023-01-13T04:22:04.024Z,8.9
2023-01-13T04:23:04.988Z,8.9
2023-01-13T04:24:05.959Z,8.8
2023-01-13T04:25:07.017Z,8.8
2023-01-13T04:26:07.974Z,8.7
2023-01-13T04:27:08.979Z,8.6
2023-01-13T04:28:09.990Z,8.6
2023-01-13T04:29:10.938Z,8.6
2023-01-13T04:30:11.973Z,8.7
2023-01-13T04:31:13.057Z,8.7
2023-01-13T04:32:13.989Z,8.7
2023-01-13T04:33:14.985Z,8.7
2023-01-13T04:34:15.959Z,8.6
2023-01-13T04:35:16.965Z,8.7
2023-01-13T04:36:17.940Z,8.8
2023-01-13T04:37:18.981Z,8.8
2023-01-13T04:38:19.969Z,8.7
2023-01-13T04:39:20.978Z,8.7
2023-01-13T04:40:22.092Z,8.7
2023-01-13T04:41:22.942Z,8.7
2023-01-13T04:42:24.021Z,8.7
2023-01-13T04:43:24.991Z,8.8
2023-01-13T04:44:25.983Z,8.8
2023-01-13T04:45:26.962Z,8.9
2023-01-13T04:46:27.965Z,8.9
2023-01-13T04:47:28.969Z,8.9
2023-01-13T04:48:29.943Z,9
2023-01-13T04:49:31.019Z,9
2023-01-13T04:50:31.952Z,8.9
2023-01-13T04:51:32.998Z,8.9
2023-01-13T04:52:33.986Z,8.7
2023-01-13T04:53:34.950Z,8.7
2023-01-13T04:54:36.008Z,8.8
2023-01-13T04:55:37.007Z,8.9
2023-01-13T04:56:38.019Z,9
2023-01-13T04:57:38.934Z,9
2023-01-13T04:58:39.959Z,9.1
2023-01-13T04:59:41.047Z,9
2023-01-13T05:00:41.922Z,9
2023-01-13T05:01:43.053Z,8.9
2023-01-13T05:02:43.923Z,8.8
2023-01-13T05:03:44.940Z,8.8
2023-01-13T05:04:45.966Z,8.8
2023-01-13T05:05:46.938Z,8.8
2023-01-13T05:06:47.984Z,8.8
2023-01-13T05:07:49.009Z,8.9
2023-01-13T05:08:49.987Z,8.9
2023-01-13T05:09:50.979Z,9
2023-01-13T05:10:52.026Z,8.9
2023-01-13T05:11:53.025Z,9
2023-01-13T05:12:53.999Z,8.9
2023-01-13T05:13:55.013Z,8.8
2023-01-13T05:14:55.993Z,8.8
2023-01-13T05:15:57.036Z,8.7
2023-01-13T05:16:57.959Z,8.7
2023-01-13T05:17:58.971Z,8.8
2023-01-13T05:18:59.963Z,8.8
2023-01-13T05:20:00.977Z,8.8
2023-01-13T05:21:01.962Z,8.7
2023-01-13T05:22:02.976Z,8.7
2023-01-13T05:23:04.041Z,8.7
2023-01-13T05:24:04.993Z,8.6
2023-01-13T05:25:06.000Z,8.6
2023-01-13T05:26:07.028Z,8.6
2023-01-13T05:27:07.959Z,8.6
2023-01-13T05:28:08.996Z,8.6
2023-01-13T05:29:09.985Z,8.6
2023-01-13T05:30:10.982Z,8.7
2023-01-13T05:31:12.076Z,8.7
2023-01-13T05:32:12.981Z,8.7
2023-01-13T05:33:14.016Z,8.7
2023-01-13T05:34:14.994Z,8.7
2023-01-13T05:35:15.946Z,8.7
2023-01-13T05:36:16.990Z,8.7
2023-01-13T05:37:18.036Z,8.8
2023-01-13T05:38:19.008Z,8.8
2023-01-13T05:39:20.002Z,8.8
2023-01-13T05:40:20.969Z,8.8
2023-01-13T05:41:21.983Z,8.8
2023-01-13T05:42:22.982Z,8.8
2023-01-13T05:43:24.052Z,8.9
2023-01-13T05:44:24.999Z,8.9
2023-01-13T05:45:26.097Z,8.8
2023-01-13T05:46:27.023Z,8.8
2023-01-13T05:47:28.009Z,8.7
2023-01-13T05:48:29.004Z,8.8
2023-01-13T05:49:29.982Z,8.8
2023-01-13T05:50:30.983Z,8.8
2023-01-13T05:51:31.988Z,8.9
2023-01-13T05:52:32.967Z,9
2023-01-13T05:53:34.005Z,9
2023-01-13T05:54:34.960Z,9
2023-01-13T05:55:36.043Z,9
2023-01-13T05:56:36.999Z,9
2023-01-13T05:57:38.023Z,9
2023-01-13T05:58:38.967Z,8.9
2023-01-13T05:59:39.984Z,9
2023-01-13T06:00:41.955Z,9
2023-01-13T06:01:41.979Z,9.1
2023-01-13T06:02:43.003Z,9.1
2023-01-13T06:03:43.981Z,9
2023-01-13T06:04:45.056Z,8.9
2023-01-13T06:05:46.286Z,8.9
2023-01-13T06:06:48.062Z,9
2023-01-13T06:07:48.969Z,8.9
2023-01-13T06:08:50.040Z,8.9
2023-01-13T06:09:51.013Z,8.9
2023-01-13T06:10:51.993Z,8.9
2023-01-13T06:11:53.040Z,8.9
2023-01-13T06:12:53.979Z,8.9
2023-01-13T06:13:55.032Z,9
2023-01-13T06:14:56.023Z,8.9
2023-01-13T06:15:57.082Z,9
2023-01-13T06:16:57.989Z,9
2023-01-13T06:17:58.990Z,9
2023-01-13T06:19:00.025Z,9
2023-01-13T06:20:01.023Z,9
2023-01-13T06:21:02.026Z,9
2023-01-13T06:22:02.980Z,9.1
2023-01-13T06:23:04.005Z,9.1
2023-01-13T06:24:05.092Z,9.2
2023-01-13T06:25:06.009Z,9.3
2023-01-13T06:26:07.069Z,9.4
2023-01-13T06:27:08.036Z,9.3
2023-01-13T06:28:09.004Z,9.3
2023-01-13T06:29:10.095Z,9.3
2023-01-13T06:30:11.024Z,9.4
2023-01-13T06:31:12.089Z,9.4
2023-01-13T06:32:13.111Z,9.4
2023-01-13T06:33:14.008Z,9.3
2023-01-13T06:34:15.061Z,9.2
2023-01-13T06:35:15.992Z,9.1
2023-01-13T06:36:17.010Z,9.1
2023-01-13T06:37:17.984Z,9.1
2023-01-13T06:38:19.020Z,9.1
2023-01-13T06:39:20.248Z,9.1
2023-01-13T06:40:21.080Z,9
2023-01-13T06:41:22.142Z,8.9
2023-01-13T06:42:23.533Z,9
2023-01-13T06:43:24.060Z,9
2023-01-13T06:44:25.062Z,9.1
2023-01-13T06:45:26.205Z,9.1
2023-01-13T06:46:27.089Z,9.2
2023-01-13T06:47:28.065Z,9.2
2023-01-13T06:48:28.942Z,9.3
2023-01-13T06:49:30.005Z,9.3
2023-01-13T06:50:31.022Z,9.2
2023-01-13T06:51:32.054Z,9.2
2023-01-13T06:52:33.029Z,9.1
2023-01-13T06:53:33.984Z,9.1
2023-01-13T06:54:35.102Z,9.1
2023-01-13T06:55:36.039Z,9.1
2023-01-13T06:56:37.041Z,9.1
2023-01-13T06:57:37.994Z,9
2023-01-13T06:58:39.049Z,9
2023-01-13T06:59:40.122Z,8.9
2023-01-13T07:00:41.084Z,8.9
2023-01-13T07:01:42.155Z,8.8
2023-01-13T07:02:43.496Z,8.8
2023-01-13T07:03:45.021Z,8.8
2023-01-13T07:04:46.515Z,8.9
2023-01-13T07:05:48.046Z,8.8
2023-01-13T07:06:49.087Z,8.7
2023-01-13T07:07:50.052Z,8.6
2023-01-13T07:08:51.210Z,8.6
2023-01-13T07:09:52.246Z,8.6
2023-01-13T07:10:53.282Z,8.6
2023-01-13T07:11:54.384Z,8.6
2023-01-13T07:12:55.077Z,8.7
2023-01-13T07:13:56.021Z,8.6
2023-01-13T07:14:57.091Z,8.6
2023-01-13T07:15:58.040Z,8.6
2023-01-13T07:16:59.059Z,8.5
2023-01-13T07:18:00.049Z,8.6
2023-01-13T07:19:01.095Z,8.6
2023-01-13T07:20:02.079Z,8.7
2023-01-13T07:21:03.060Z,8.7
2023-01-13T07:22:04.041Z,8.8
2023-01-13T07:23:05.003Z,8.8
2023-01-13T07:24:06.082Z,8.8
2023-01-13T07:25:07.059Z,8.8
2023-01-13T07:26:08.080Z,8.8
2023-01-13T07:27:09.141Z,8.7
2023-01-13T07:28:10.152Z,8.7
2023-01-13T07:29:11.068Z,8.7
2023-01-13T07:30:12.088Z,8.7
2023-01-13T07:31:13.126Z,8.8
2023-01-13T07:32:14.049Z,8.8
2023-01-13T07:33:15.039Z,8.7
2023-01-13T07:34:16.061Z,8.8
2023-01-13T07:35:17.067Z,8.8
2023-01-13T07:36:18.062Z,8.9
2023-01-13T07:37:19.057Z,8.9
2023-01-13T07:38:20.033Z,8.9
2023-01-13T07:39:21.030Z,8.8
2023-01-13T07:40:22.063Z,8.7
2023-01-13T07:41:23.034Z,8.7
2023-01-13T07:42:24.052Z,8.7
2023-01-13T07:43:25.085Z,8.7
2023-01-13T07:44:26.037Z,8.7
2023-01-13T07:45:27.141Z,8.5
2023-01-13T07:46:28.032Z,8.4
2023-01-13T07:47:29.109Z,8.5
2023-01-13T07:48:30.021Z,8.5
2023-01-13T07:49:31.062Z,8.5
2023-01-13T07:50:32.126Z,8.5
2023-01-13T07:51:33.081Z,8.6
2023-01-13T07:52:34.042Z,8.6
2023-01-13T07:53:35.081Z,8.7
2023-01-13T07:54:40.833Z,8.7
2023-01-13T07:55:37.047Z,8.7
2023-01-13T07:56:38.116Z,8.7
2023-01-13T07:57:39.079Z,8.8
2023-01-13T07:58:40.097Z,8.8
2023-01-13T07:59:41.670Z,8.8
2023-01-13T08:00:43.261Z,8.8
2023-01-13T08:01:45.158Z,8.8
2023-01-13T08:02:46.168Z,8.7
2023-01-13T08:03:47.074Z,8.8
2023-01-13T08:04:48.076Z,8.9
2023-01-13T08:05:49.180Z,8.9
2023-01-13T08:06:50.049Z,8.9
2023-01-13T08:07:51.043Z,8.8
2023-01-13T08:08:52.091Z,8.9
2023-01-13T08:09:53.092Z,8.8
2023-01-13T08:10:54.096Z,8.9
2023-01-13T08:11:55.061Z,8.9
2023-01-13T08:12:57.045Z,8.9
2023-01-13T08:13:57.061Z,8.9
2023-01-13T08:14:58.087Z,8.9
2023-01-13T08:15:59.060Z,8.8
2023-01-13T08:17:00.127Z,8.9
2023-01-13T08:18:01.068Z,8.8
2023-01-13T08:19:02.047Z,8.8
2023-01-13T08:20:03.055Z,8.8
2023-01-13T08:21:04.059Z,8.8
2023-01-13T08:22:05.143Z,8.8
2023-01-13T08:23:07.275Z,8.9
2023-01-13T08:24:07.041Z,8.9
2023-01-13T08:25:08.085Z,8.9
2023-01-13T08:26:09.095Z,8.9
2023-01-13T08:27:10.102Z,8.9
2023-01-13T08:28:11.100Z,8.9
2023-01-13T08:29:14.728Z,8.8
2023-01-13T08:30:13.074Z,8.9
2023-01-13T08:31:14.131Z,8.9
2023-01-13T08:32:15.096Z,8.8
2023-01-13T08:33:16.039Z,8.8
2023-01-13T08:34:17.065Z,8.9
2023-01-13T08:35:18.079Z,8.9
2023-01-13T08:36:19.107Z,9
2023-01-13T08:37:20.081Z,8.9
2023-01-13T08:38:21.057Z,9
2023-01-13T08:39:22.115Z,9
2023-01-13T08:40:23.104Z,9.1
2023-01-13T08:41:24.120Z,9
2023-01-13T08:42:25.239Z,9
2023-01-13T08:43:26.109Z,9.1
2023-01-13T08:44:27.109Z,9
2023-01-13T08:45:28.179Z,9
2023-01-13T08:46:29.222Z,9
2023-01-13T08:47:30.153Z,9.1
2023-01-13T08:48:31.594Z,9.3
2023-01-13T08:49:32.141Z,9.4
2023-01-13T08:50:33.186Z,9.4
2023-01-13T08:51:34.102Z,9.4
2023-01-13T08:52:35.404Z,9.4
2023-01-13T08:53:37.081Z,9.3
2023-01-13T08:54:38.123Z,9.3
2023-01-13T08:55:39.101Z,9.3
2023-01-13T08:56:40.169Z,9.3
2023-01-13T08:57:41.132Z,9.3
2023-01-13T08:58:42.141Z,9.4
2023-01-13T08:59:43.143Z,9.4
2023-01-13T09:00:44.099Z,9.4
2023-01-13T09:01:45.262Z,9.3
2023-01-13T09:02:46.183Z,9.3
2023-01-13T09:03:47.082Z,9.3
2023-01-13T09:04:48.153Z,9.1
2023-01-13T09:05:49.101Z,9.1
2023-01-13T09:06:50.103Z,9.1
2023-01-13T09:07:51.148Z,8.9
2023-01-13T09:08:52.125Z,8.8
2023-01-13T09:09:53.110Z,8.8
2023-01-13T09:10:54.111Z,8.8
2023-01-13T09:11:55.100Z,8.9
2023-01-13T09:12:56.120Z,8.9
2023-01-13T09:13:57.135Z,8.9
2023-01-13T09:14:58.107Z,8.9
2023-01-13T09:15:59.214Z,8.9
2023-01-13T09:17:00.062Z,8.9
2023-01-13T09:18:01.103Z,8.9
2023-01-13T09:19:02.149Z,8.9
2023-01-13T09:20:03.100Z,8.9
2023-01-13T09:21:04.135Z,8.9
2023-01-13T09:22:05.460Z,8.9
2023-01-13T09:23:09.962Z,9
2023-01-13T09:24:08.101Z,8.9
2023-01-13T09:25:09.119Z,8.9
2023-01-13T09:26:10.121Z,9
2023-01-13T09:27:11.088Z,8.9
2023-01-13T09:28:12.194Z,9
2023-01-13T09:29:13.164Z,9.1
2023-01-13T09:30:14.506Z,9.2
2023-01-13T09:31:16.178Z,9.2
2023-01-13T09:32:17.089Z,9.2
2023-01-13T09:33:18.402Z,9.2
2023-01-13T09:34:19.132Z,9.1
2023-01-13T09:35:20.115Z,9.1
2023-01-13T09:36:21.162Z,9
2023-01-13T09:37:22.139Z,9
2023-01-13T09:38:23.163Z,9
2023-01-13T09:39:24.117Z,9
2023-01-13T09:40:25.168Z,9.1
2023-01-13T09:41:26.220Z,9.1
2023-01-13T09:42:27.142Z,9.2
2023-01-13T09:43:28.164Z,9.3
2023-01-13T09:44:29.123Z,9.3
2023-01-13T09:45:30.138Z,9.4
2023-01-13T09:46:31.174Z,9.3
2023-01-13T09:47:32.083Z,9.3
2023-01-13T09:48:33.139Z,9.4
2023-01-13T09:49:34.141Z,9.4
2023-01-13T09:50:35.153Z,9.4
2023-01-13T09:51:36.168Z,9.4
2023-01-13T09:52:37.171Z,9.4
2023-01-13T09:53:38.179Z,9.5
2023-01-13T09:54:39.124Z,9.4
2023-01-13T09:55:40.075Z,9.4
2023-01-13T09:56:41.135Z,9.4
2023-01-13T09:57:42.103Z,9.4
2023-01-13T09:58:43.289Z,9.4
2023-01-13T09:59:44.111Z,9.3
2023-01-13T10:00:48.269Z,9.3
2023-01-13T10:01:50.119Z,9.2
2023-01-13T10:02:51.590Z,9.2
2023-01-13T10:03:53.220Z,9.2
2023-01-13T10:04:54.200Z,9.2
2023-01-13T10:05:55.110Z,9.2
2023-01-13T10:06:56.121Z,9.1
2023-01-13T10:07:58.148Z,9.1
2023-01-13T10:08:59.149Z,9.1
2023-01-13T10:10:00.165Z,9.2
2023-01-13T10:11:01.142Z,9.2
2023-01-13T10:12:02.588Z,9.3
2023-01-13T10:13:04.188Z,9.4
2023-01-13T10:14:05.520Z,9.3
2023-01-13T10:15:07.190Z,9.4
2023-01-13T10:16:08.260Z,9.4
2023-01-13T10:17:09.152Z,9.4
2023-01-13T10:18:10.087Z,9.4
2023-01-13T10:19:11.167Z,9.6
2023-01-13T10:20:12.182Z,9.6
2023-01-13T10:21:13.161Z,9.7
2023-01-13T10:22:14.123Z,9.7
2023-01-13T10:23:15.122Z,9.8
2023-01-13T10:24:16.212Z,9.9
2023-01-13T10:25:17.128Z,9.9
2023-01-13T10:26:18.506Z,9.8
2023-01-13T10:27:19.221Z,9.8
2023-01-13T10:28:20.233Z,9.8
2023-01-13T10:29:21.204Z,9.9
2023-01-13T10:30:22.166Z,9.9
2023-01-13T10:31:23.223Z,9.9
2023-01-13T10:32:24.136Z,9.8
2023-01-13T10:33:27.634Z,9.7
2023-01-13T10:34:26.141Z,9.7
2023-01-13T10:35:27.206Z,9.7
2023-01-13T10:36:28.455Z,9.6
2023-01-13T10:37:30.141Z,9.6
2023-01-13T10:38:31.457Z,9.6
2023-01-13T10:39:33.126Z,9.7
2023-01-13T10:40:34.891Z,9.7
2023-01-13T10:41:37.121Z,9.7
2023-01-13T10:42:38.122Z,9.6
2023-01-13T10:43:39.162Z,9.6
2023-01-13T10:44:40.150Z,9.6
2023-01-13T10:45:41.204Z,9.7
2023-01-13T10:46:42.265Z,9.7
2023-01-13T10:47:43.169Z,9.8
2023-01-13T10:48:45.123Z,9.8
2023-01-13T10:49:46.213Z,9.9
2023-01-13T10:50:47.160Z,9.9
2023-01-13T10:51:48.169Z,10
2023-01-13T10:52:49.418Z,10.1
2023-01-13T10:53:51.130Z,10.2
2023-01-13T10:54:52.211Z,10.2
2023-01-13T10:55:54.813Z,10.2
2023-01-13T10:56:55.181Z,10.3
2023-01-13T10:57:56.138Z,10.4
2023-01-13T10:58:57.378Z,10.4
2023-01-13T11:00:00.158Z,10.4
2023-01-13T11:01:01.626Z,10.3
2023-01-13T11:02:23.723Z,10.2
2023-01-13T11:03:08.150Z,10.3
2023-01-13T11:04:09.181Z,10.2
2023-01-13T11:05:11.623Z,10.2
2023-01-13T11:06:14.241Z,10.3
2023-01-13T11:07:16.181Z,10.3
2023-01-13T11:08:17.602Z,10.5
2023-01-13T11:09:20.081Z,10.5
2023-01-13T11:10:21.563Z,10.6
2023-01-13T11:11:24.581Z,10.5
2023-01-13T11:12:27.176Z,10.5
2023-01-13T11:13:28.152Z,10.4
2023-01-13T11:14:29.198Z,10.3
2023-01-13T11:15:31.141Z,10.4
2023-01-13T11:16:32.230Z,10.3
2023-01-13T11:17:33.159Z,10.2
2023-01-13T11:18:34.411Z,10.3
2023-01-13T11:19:37.870Z,10.3
2023-01-13T11:20:36.189Z,10.3
2023-01-13T11:21:37.229Z,10.4
2023-01-13T11:22:38.147Z,10.5
2023-01-13T11:23:39.232Z,10.6
2023-01-13T11:24:40.370Z,10.6
2023-01-13T11:25:41.889Z,10.6
2023-01-13T11:26:43.662Z,10.5
2023-01-13T11:27:46.181Z,10.3
2023-01-13T11:28:47.712Z,10.3
2023-01-13T11:29:49.131Z,10.2
2023-01-13T11:30:50.874Z,10.2
2023-01-13T11:31:51.161Z,10
2023-01-13T11:32:52.225Z,10.1
2023-01-13T11:33:53.239Z,10.1
2023-01-13T11:34:54.171Z,10
2023-01-13T11:35:56.295Z,10.1
2023-01-13T11:36:58.170Z,10
2023-01-13T11:37:59.582Z,10
2023-01-13T11:39:01.203Z,9.9
2023-01-13T11:40:02.148Z,9.8
2023-01-13T11:41:03.179Z,9.7
2023-01-13T11:42:04.187Z,9.6
2023-01-13T11:43:05.191Z,9.7
2023-01-13T11:44:06.149Z,9.7
2023-01-13T11:45:07.238Z,9.7
2023-01-13T11:46:08.177Z,9.6
2023-01-13T11:47:09.181Z,9.5
2023-01-13T11:48:10.226Z,9.5
2023-01-13T11:49:11.169Z,9.5
2023-01-13T11:50:12.239Z,9.5
2023-01-13T11:51:13.190Z,9.5
2023-01-13T11:52:14.142Z,9.5
2023-01-13T11:53:15.150Z,9.6
2023-01-13T11:54:16.207Z,9.6
2023-01-13T11:55:17.364Z,9.5
2023-01-13T11:56:18.180Z,9.5
2023-01-13T11:57:19.350Z,9.6
2023-01-13T11:58:20.202Z,9.6
2023-01-13T11:59:21.272Z,9.7
2023-01-13T12:00:22.186Z,9.7
2023-01-13T12:01:23.889Z,9.7
2023-01-13T12:02:25.703Z,9.7
2023-01-13T12:03:28.355Z,9.8
2023-01-13T12:04:29.690Z,9.8
2023-01-13T12:05:31.175Z,9.9
2023-01-13T12:06:32.249Z,9.9
2023-01-13T12:07:33.205Z,9.9
2023-01-13T12:08:34.239Z,10
2023-01-13T12:09:35.143Z,10
2023-01-13T12:10:36.577Z,10
2023-01-13T12:11:39.170Z,10
2023-01-13T12:12:40.385Z,10.1
2023-01-13T12:13:41.199Z,10.1
2023-01-13T12:14:42.321Z,10.2
2023-01-13T12:15:43.185Z,10.1
2023-01-13T12:16:44.158Z,10.2
2023-01-13T12:17:45.188Z,10.2
2023-01-13T12:18:46.550Z,10.2
2023-01-13T12:19:47.194Z,10.2
2023-01-13T12:20:48.885Z,10.2
2023-01-13T12:21:50.443Z,10.1
2023-01-13T12:22:51.200Z,10.2
2023-01-13T12:23:52.206Z,10.2
2023-01-13T12:24:53.410Z,10.1
2023-01-13T12:25:54.161Z,10.1
2023-01-13T12:26:55.206Z,10.1
2023-01-13T12:27:56.548Z,10.1
2023-01-13T12:28:58.768Z,10.1
2023-01-13T12:30:00.202Z,10.1
2023-01-13T12:31:02.225Z,10.1
2023-01-13T12:32:03.280Z,10.2
2023-01-13T12:33:04.246Z,10.2
2023-01-13T12:34:05.242Z,10.2
2023-01-13T12:35:06.184Z,10.3
2023-01-13T12:36:07.252Z,10.4
2023-01-13T12:37:08.213Z,10.5
2023-01-13T12:38:09.204Z,10.5
2023-01-13T12:39:10.293Z,10.5
2023-01-13T12:40:11.300Z,10.6
2023-01-13T12:41:12.227Z,10.6
2023-01-13T12:42:13.180Z,10.7
2023-01-13T12:43:14.184Z,10.8
2023-01-13T12:44:15.226Z,10.9
2023-01-13T12:45:18.537Z,11.2
2023-01-13T12:46:18.280Z,11.3
2023-01-13T12:47:19.182Z,11.5
2023-01-13T12:48:20.183Z,11.6
2023-01-13T12:49:21.324Z,11.5
2023-01-13T12:50:22.979Z,11.6
2023-01-13T12:51:24.227Z,11.6
2023-01-13T12:52:25.188Z,11.7
2023-01-13T12:53:26.183Z,11.7
2023-01-13T12:54:27.228Z,11.6
2023-01-13T12:55:28.221Z,11.7
2023-01-13T12:56:29.225Z,11.6
2023-01-13T12:57:30.238Z,11.5
2023-01-13T12:58:32.132Z,11.4
2023-01-13T12:59:33.221Z,11.5
2023-01-13T13:00:34.260Z,11.5
2023-01-13T13:01:35.527Z,11.5
2023-01-13T13:02:36.383Z,11.4
2023-01-13T13:03:37.205Z,11.2
2023-01-13T13:04:39.245Z,11
2023-01-13T13:05:41.225Z,10.9
2023-01-13T13:06:42.194Z,10.8
2023-01-13T13:07:43.214Z,10.7
2023-01-13T13:08:44.440Z,10.7
2023-01-13T13:09:45.881Z,10.7
2023-01-13T13:10:47.405Z,10.6
2023-01-13T13:11:48.262Z,10.5
2023-01-13T13:12:50.246Z,10.5
2023-01-13T13:13:51.183Z,10.5
2023-01-13T13:14:52.454Z,10.4
2023-01-13T13:15:53.486Z,10.3
2023-01-13T13:16:55.225Z,10.3
2023-01-13T13:17:56.220Z,10.4
2023-01-13T13:18:57.880Z,10.4
2023-01-13T13:19:59.456Z,10.4
2023-01-13T13:21:02.345Z,10.5
2023-01-13T13:22:01.284Z,10.4
2023-01-13T13:23:02.200Z,10.3
2023-01-13T13:24:03.211Z,10.2
2023-01-13T13:25:04.224Z,10.1
2023-01-13T13:26:05.222Z,10.1
2023-01-13T13:27:06.242Z,10.1
2023-01-13T13:28:07.579Z,10.1
2023-01-13T13:29:09.248Z,10.1
2023-01-13T13:30:10.274Z,10.1
2023-01-13T13:31:11.315Z,10.2
2023-01-13T13:32:12.206Z,10.2
2023-01-13T13:33:13.242Z,10.2
2023-01-13T13:34:14.253Z,10.3
2023-01-13T13:35:15.222Z,10.3
2023-01-13T13:36:16.647Z,10.3
2023-01-13T13:37:18.191Z,10.2
2023-01-13T13:38:19.254Z,10.2
2023-01-13T13:39:20.220Z,10.3
2023-01-13T13:40:21.206Z,10.3
2023-01-13T13:41:22.251Z,10.3
2023-01-13T13:42:23.347Z,10.4
2023-01-13T13:43:25.161Z,10.4
2023-01-13T13:44:26.240Z,10.3
2023-01-13T13:45:27.224Z,10.3
2023-01-13T13:46:28.411Z,10.2
2023-01-13T13:47:29.263Z,10.1
2023-01-13T13:48:30.260Z,10.2
2023-01-13T13:49:31.221Z,10.2
2023-01-13T13:50:33.049Z,10.3
2023-01-13T13:51:34.186Z,10.4
2023-01-13T13:52:35.462Z,10.5
2023-01-13T13:53:36.229Z,10.6
2023-01-13T13:54:37.199Z,10.6
2023-01-13T13:55:38.486Z,10.6
2023-01-13T13:56:40.408Z,10.5
2023-01-13T13:57:41.261Z,10.5
2023-01-13T13:58:42.264Z,10.5
2023-01-13T13:59:43.972Z,10.6
2023-01-13T14:00:45.224Z,10.6
2023-01-13T14:01:46.354Z,10.6
2023-01-13T14:02:47.247Z,10.8
2023-01-13T14:03:48.221Z,10.8
2023-01-13T14:04:49.295Z,10.8